21kousinmaru — JD2168 — position and weather

sailwx.info

Track history (hours):
 
Tides and Currents Weather Stations Pressure Air Temp Water Temp Dewpoint Dewpoint Depression Visibility Wind Speed Wind Dir Waves Ship Positions

21kousinmaru

Last reported at 2016-May-25 04:29 UTC. Time now 2016-May-26 14:35 UTC.
Position N 35°14' E 139°46'.

Length 68 m; draft 4.5 m.

MMSI: 431501835.

Date/timePositionNaut miles runAvg speedWind from/ knotsBaromVisibWave heightAir tempDewpointWater temp
2016-May-25 04:29N 35°14' E 139°46'1112.0
2016-May-25 03:33N 35°24' E 139°40'2 1.5
2016-May-25 02:33N 35°25' E 139°39'0 0.0
2016-May-25 01:33N 35°25' E 139°39'0 0.0
2016-May-25 00:33N 35°25' E 139°39'0 0.0
2016-May-24 23:33N 35°25' E 139°39'3 2.8
2016-May-24 22:33N 35°22' E 139°40'0 0.0
2016-May-24 21:33N 35°22' E 139°40'0 0.0
2016-May-24 20:33N 35°22' E 139°40'0 0.0
2016-May-24 19:33N 35°22' E 139°40'0 0.0
2016-May-24 18:33N 35°22' E 139°40'0 0.0
2016-May-24 17:33N 35°22' E 139°40'0 0.0
2016-May-24 16:33N 35°22' E 139°40'0 0.0
2016-May-24 15:33N 35°22' E 139°40'0 0.0
2016-May-24 14:34N 35°22' E 139°40'0 0.0
2016-May-24 13:33N 35°22' E 139°40'0 0.0
2016-May-24 12:33N 35°22' E 139°40'0 0.1
2016-May-24 11:34N 35°22' E 139°40'0 0.0
2016-May-24 10:33N 35°22' E 139°40'0 0.5
2016-May-24 09:33N 35°22' E 139°41'1412.1
2016-May-24 08:27N 35°09' E 139°46'1112.6
2016-May-24 07:33N 35°00' E 139°38'1313.6
2016-May-24 06:33N 34°52' E 139°24'1513.9
2016-May-24 05:29N 34°44' E 139°10'22212.4
2016-May-23 11:32N 33°29' E 134°57'  
2016-May-18 11:33N 35°02' E 139°30'1612.4
2016-May-18 10:15N 35°12' E 139°46'812.2
2016-May-18 09:33N 35°20' E 139°43'1211.7
2016-May-18 08:34N 35°30' E 139°49'0 0.3
2016-May-18 07:33N 35°30' E 139°50'3 3.4
2016-May-18 06:34N 35°31' E 139°46'0 0.0
2016-May-18 05:33N 35°31' E 139°46'0 0.0
2016-May-18 04:34N 35°31' E 139°46'0 0.0
2016-May-18 03:33N 35°31' E 139°46'0 0.0
2016-May-18 02:34N 35°31' E 139°46'0 0.0
2016-May-18 01:33N 35°31' E 139°46'0 0.0
2016-May-18 00:34N 35°31' E 139°46'0 0.0
2016-May-17 23:33N 35°31' E 139°46'6 6.5
2016-May-17 22:34N 35°25' E 139°46'1111.1
2016-May-17 21:33N 35°14' E 139°47'1211.6
2016-May-17 20:33N 35°03' E 139°42'1512.5
2016-May-17 19:21N 34°54' E 139°27'221 9.5
2016-May-16 20:08N 34°08' E 135°06'0 0.0
2016-May-16 19:23N 34°08' E 135°06'0 0.0
2016-May-16 17:32N 34°08' E 135°06'0 0.0
2016-May-16 16:32N 34°08' E 135°06'0 0.0
2016-May-16 15:14N 34°08' E 135°06'0 0.0
2016-May-16 14:32N 34°08' E 135°06'0 0.0
2016-May-16 13:32N 34°08' E 135°06'0 0.1
2016-May-16 12:32N 34°08' E 135°06'0 0.0
2016-May-16 11:32N 34°08' E 135°06'0 0.1
2016-May-16 10:03N 34°08' E 135°06'0 0.0
2016-May-16 09:06N 34°08' E 135°06'2 3.3
2016-May-16 08:24N 34°10' E 135°04'14 7.8
2016-May-16 06:33N 34°24' E 135°05'1111.4
2016-May-16 05:33N 34°31' E 135°16'9 4.0
2016-May-16 03:21N 34°33' E 135°26'0 0.0
2016-May-16 02:27N 34°33' E 135°26'0 0.1
2016-May-15 23:13N 34°33' E 135°26'811.2
2016-May-15 22:33N 34°32' E 135°17'1212.4
2016-May-15 21:33N 34°28' E 135°03'  
Track history (hours):
 
Tides and Currents Weather Stations Pressure Air Temp Water Temp Dewpoint Dewpoint Depression Visibility Wind Speed Wind Dir Waves Ship Positions

21kousinmaru

Last reported at 2016-May-25 04:29 UTC. Time now 2016-May-26 14:35 UTC.
Position N 35°14' E 139°46'.

Length 68 m; draft 4.5 m.

MMSI: 431501835.

Date/timePositionNaut miles runAvg speedWind from/ knotsBaromVisibWave heightAir tempDewpointWater temp
2016-May-25 04:29N 35°14' E 139°46'1112.0
2016-May-25 03:33N 35°24' E 139°40'2 1.5
2016-May-25 02:33N 35°25' E 139°39'0 0.0
2016-May-25 01:33N 35°25' E 139°39'0 0.0
2016-May-25 00:33N 35°25' E 139°39'0 0.0
2016-May-24 23:33N 35°25' E 139°39'3 2.8
2016-May-24 22:33N 35°22' E 139°40'0 0.0
2016-May-24 21:33N 35°22' E 139°40'0 0.0
2016-May-24 20:33N 35°22' E 139°40'0 0.0
2016-May-24 19:33N 35°22' E 139°40'0 0.0
2016-May-24 18:33N 35°22' E 139°40'0 0.0
2016-May-24 17:33N 35°22' E 139°40'0 0.0
2016-May-24 16:33N 35°22' E 139°40'0 0.0
2016-May-24 15:33N 35°22' E 139°40'0 0.0
2016-May-24 14:34N 35°22' E 139°40'0 0.0
2016-May-24 13:33N 35°22' E 139°40'0 0.0
2016-May-24 12:33N 35°22' E 139°40'0 0.1
2016-May-24 11:34N 35°22' E 139°40'0 0.0
2016-May-24 10:33N 35°22' E 139°40'0 0.5
2016-May-24 09:33N 35°22' E 139°41'1412.1
2016-May-24 08:27N 35°09' E 139°46'1112.6
2016-May-24 07:33N 35°00' E 139°38'1313.6
2016-May-24 06:33N 34°52' E 139°24'1513.9
2016-May-24 05:29N 34°44' E 139°10'22212.4
2016-May-23 11:32N 33°29' E 134°57'  
2016-May-18 11:33N 35°02' E 139°30'1612.4
2016-May-18 10:15N 35°12' E 139°46'812.2
2016-May-18 09:33N 35°20' E 139°43'1211.7
2016-May-18 08:34N 35°30' E 139°49'0 0.3
2016-May-18 07:33N 35°30' E 139°50'3 3.4
2016-May-18 06:34N 35°31' E 139°46'0 0.0
2016-May-18 05:33N 35°31' E 139°46'0 0.0
2016-May-18 04:34N 35°31' E 139°46'0 0.0
2016-May-18 03:33N 35°31' E 139°46'0 0.0
2016-May-18 02:34N 35°31' E 139°46'0 0.0
2016-May-18 01:33N 35°31' E 139°46'0 0.0
2016-May-18 00:34N 35°31' E 139°46'0 0.0
2016-May-17 23:33N 35°31' E 139°46'6 6.5
2016-May-17 22:34N 35°25' E 139°46'1111.1
2016-May-17 21:33N 35°14' E 139°47'1211.6
2016-May-17 20:33N 35°03' E 139°42'1512.5
2016-May-17 19:21N 34°54' E 139°27'221 9.5
2016-May-16 20:08N 34°08' E 135°06'0 0.0
2016-May-16 19:23N 34°08' E 135°06'0 0.0
2016-May-16 17:32N 34°08' E 135°06'0 0.0
2016-May-16 16:32N 34°08' E 135°06'0 0.0
2016-May-16 15:14N 34°08' E 135°06'0 0.0
2016-May-16 14:32N 34°08' E 135°06'0 0.0
2016-May-16 13:32N 34°08' E 135°06'0 0.1
2016-May-16 12:32N 34°08' E 135°06'0 0.0
2016-May-16 11:32N 34°08' E 135°06'0 0.1
2016-May-16 10:03N 34°08' E 135°06'0 0.0
2016-May-16 09:06N 34°08' E 135°06'2 3.3
2016-May-16 08:24N 34°10' E 135°04'14 7.8
2016-May-16 06:33N 34°24' E 135°05'1111.4
2016-May-16 05:33N 34°31' E 135°16'9 4.0
2016-May-16 03:21N 34°33' E 135°26'0 0.0
2016-May-16 02:27N 34°33' E 135°26'0 0.1
2016-May-15 23:13N 34°33' E 135°26'811.2
2016-May-15 22:33N 34°32' E 135°17'1212.4
2016-May-15 21:33N 34°28' E 135°03'  

Dump ship's entire track history